Time;durP1;ratioP1;P1;durP2;ratioP2;P2;SDS_P1;SDS_P2;PMS_P1;PMS_P2;Temp;Humidity;BMP_temperature;BMP_pressure;BME280_temperature;BME280_humidity;BME280_pressure;Samples;Min_cycle;Max_cycle;Signal;HPM_P1;HPM_P2
2020/06/24 00:00:31;;;;;;;2.33;2.13;;;;;;;20.82;55.50;101171.15;;;;-48
2020/06/24 00:03:31;;;;;;;2.49;2.23;;;;;;;20.82;55.50;101167.75;;;;-48
2020/06/24 00:06:31;;;;;;;2.32;2.12;;;;;;;20.82;55.53;101166.97;;;;-48
2020/06/24 00:09:31;;;;;;;2.59;2.10;;;;;;;20.82;55.54;101163.28;;;;-47
2020/06/24 00:12:31;;;;;;;2.69;2.20;;;;;;;20.82;55.52;101165.46;;;;-47
2020/06/24 00:15:31;;;;;;;2.59;2.14;;;;;;;20.81;55.54;101158.97;;;;-47
2020/06/24 00:18:31;;;;;;;2.37;2.09;;;;;;;20.81;55.53;101159.64;;;;-47
2020/06/24 00:21:31;;;;;;;2.75;2.38;;;;;;;20.81;55.56;101154.64;;;;-47
2020/06/24 00:24:31;;;;;;;2.51;2.31;;;;;;;20.80;55.57;101157.11;;;;-48
2020/06/24 00:27:31;;;;;;;2.24;2.03;;;;;;;20.80;55.55;101158.58;;;;-48
2020/06/24 00:30:31;;;;;;;2.73;2.17;;;;;;;20.80;55.53;101158.34;;;;-48
2020/06/24 00:33:31;;;;;;;2.41;2.21;;;;;;;20.80;55.56;101155.33;;;;-48
2020/06/24 00:36:31;;;;;;;2.29;2.09;;;;;;;20.80;55.59;101152.88;;;;-48
2020/06/24 00:39:31;;;;;;;2.34;2.14;;;;;;;20.81;55.56;101151.64;;;;-48
2020/06/24 00:42:31;;;;;;;2.43;2.23;;;;;;;20.79;55.58;101150.71;;;;-47
2020/06/24 00:45:31;;;;;;;2.72;2.25;;;;;;;20.79;55.54;101150.65;;;;-48
2020/06/24 00:48:31;;;;;;;2.39;2.19;;;;;;;20.79;55.54;101144.39;;;;-48
2020/06/24 00:51:31;;;;;;;2.35;2.11;;;;;;;20.79;55.51;101142.48;;;;-47
2020/06/24 00:54:31;;;;;;;2.45;2.25;;;;;;;20.79;55.54;101144.90;;;;-48
2020/06/24 00:57:31;;;;;;;2.41;2.21;;;;;;;20.79;55.53;101144.39;;;;-47
2020/06/24 01:00:31;;;;;;;2.40;2.20;;;;;;;20.78;55.55;101138.58;;;;-48
2020/06/24 01:03:31;;;;;;;2.40;2.20;;;;;;;20.78;55.51;101137.97;;;;-48
2020/06/24 01:06:31;;;;;;;2.52;2.24;;;;;;;20.78;55.54;101135.83;;;;-48
2020/06/24 01:09:31;;;;;;;2.39;2.19;;;;;;;20.78;55.51;101134.31;;;;-48
2020/06/24 01:12:31;;;;;;;2.87;2.28;;;;;;;20.78;55.51;101129.34;;;;-48
2020/06/24 01:15:31;;;;;;;2.28;2.08;;;;;;;20.77;55.51;101125.59;;;;-48
2020/06/24 01:18:31;;;;;;;2.30;2.10;;;;;;;20.78;55.51;101126.89;;;;-48
2020/06/24 01:21:31;;;;;;;2.93;2.15;;;;;;;20.78;55.50;101128.90;;;;-47
2020/06/24 01:24:31;;;;;;;2.44;2.03;;;;;;;20.78;55.54;101127.83;;;;-48
2020/06/24 01:27:31;;;;;;;2.36;2.16;;;;;;;20.77;55.46;101123.42;;;;-48
2020/06/24 01:30:31;;;;;;;2.42;2.18;;;;;;;20.77;55.46;101126.04;;;;-47
2020/06/24 01:33:31;;;;;;;2.65;2.17;;;;;;;20.78;55.50;101130.00;;;;-48
2020/06/24 01:36:31;;;;;;;2.31;2.10;;;;;;;20.77;55.48;101128.34;;;;-48
2020/06/24 01:39:31;;;;;;;2.16;2.03;;;;;;;20.76;55.45;101125.82;;;;-48
2020/06/24 01:42:31;;;;;;;2.23;2.03;;;;;;;20.77;55.41;101127.45;;;;-47
2020/06/24 01:45:31;;;;;;;2.29;2.09;;;;;;;20.77;55.44;101124.53;;;;-48
2020/06/24 01:48:31;;;;;;;2.42;2.22;;;;;;;20.77;55.39;101124.42;;;;-48
2020/06/24 01:51:31;;;;;;;2.48;2.12;;;;;;;20.78;55.48;101122.86;;;;-48
2020/06/24 01:54:31;;;;;;;2.31;2.11;;;;;;;20.77;55.45;101117.87;;;;-48
2020/06/24 01:57:31;;;;;;;2.32;2.12;;;;;;;20.77;55.41;101119.62;;;;-48
2020/06/24 02:00:31;;;;;;;2.30;2.10;;;;;;;20.77;55.41;101112.66;;;;-48
2020/06/24 02:03:31;;;;;;;2.36;2.16;;;;;;;20.76;55.41;101108.20;;;;-48
2020/06/24 02:06:31;;;;;;;2.30;2.10;;;;;;;20.76;55.41;101113.06;;;;-47
2020/06/24 02:09:31;;;;;;;2.27;2.07;;;;;;;20.76;55.45;101108.20;;;;-48
2020/06/24 02:12:31;;;;;;;2.32;2.07;;;;;;;20.75;55.43;101106.63;;;;-48
2020/06/24 02:15:31;;;;;;;2.31;2.11;;;;;;;20.76;55.47;101109.33;;;;-48
2020/06/24 02:18:31;;;;;;;2.17;1.97;;;;;;;20.76;55.45;101107.14;;;;-48
2020/06/24 02:21:31;;;;;;;2.81;2.18;;;;;;;20.75;55.44;101104.52;;;;-47
2020/06/24 02:24:31;;;;;;;2.07;1.96;;;;;;;20.75;55.43;101099.92;;;;-48
2020/06/24 02:27:31;;;;;;;2.15;2.00;;;;;;;20.75;55.38;101097.13;;;;-48
2020/06/24 02:35:05;;;;;;;2.14;2.00;;;;;;;20.75;55.42;101101.22;;;;-47
2020/06/24 02:38:05;;;;;;;2.28;2.08;;;;;;;20.74;55.41;101100.71;;;;-48
2020/06/24 02:41:05;;;;;;;2.43;2.23;;;;;;;20.74;55.36;101100.55;;;;-48
2020/06/24 02:44:05;;;;;;;2.30;2.10;;;;;;;20.74;55.37;101106.31;;;;-48
2020/06/24 02:47:05;;;;;;;2.29;2.09;;;;;;;20.75;55.41;101106.59;;;;-48
2020/06/24 02:50:05;;;;;;;2.30;2.10;;;;;;;20.74;55.40;101106.48;;;;-48
2020/06/24 02:53:05;;;;;;;2.53;2.11;;;;;;;20.74;55.41;101108.33;;;;-48
2020/06/24 02:56:05;;;;;;;2.16;1.96;;;;;;;20.74;55.36;101108.16;;;;-48
2020/06/24 02:59:05;;;;;;;2.29;2.09;;;;;;;20.74;55.38;101105.80;;;;-48
2020/06/24 03:02:05;;;;;;;2.21;2.01;;;;;;;20.73;55.38;101104.31;;;;-48
2020/06/24 03:05:05;;;;;;;2.11;1.91;;;;;;;20.73;55.36;101108.89;;;;-48
2020/06/24 03:08:05;;;;;;;2.20;2.00;;;;;;;20.73;55.42;101108.78;;;;-48
2020/06/24 03:11:05;;;;;;;2.01;1.91;;;;;;;20.73;55.39;101111.47;;;;-48
2020/06/24 03:14:05;;;;;;;2.39;2.19;;;;;;;20.73;55.38;101114.83;;;;-48
2020/06/24 03:17:05;;;;;;;2.10;2.00;;;;;;;20.72;55.40;101116.79;;;;-47
2020/06/24 03:20:05;;;;;;;2.35;2.15;;;;;;;20.72;55.37;101115.44;;;;-48
2020/06/24 03:23:05;;;;;;;2.23;2.03;;;;;;;20.72;55.39;101118.23;;;;-47
2020/06/24 03:26:05;;;;;;;2.35;2.15;;;;;;;20.72;55.38;101115.05;;;;-48
2020/06/24 03:29:05;;;;;;;2.35;2.15;;;;;;;20.72;55.36;101111.48;;;;-48
2020/06/24 03:32:05;;;;;;;2.27;2.07;;;;;;;20.72;55.36;101113.33;;;;-47
2020/06/24 03:35:05;;;;;;;2.08;1.93;;;;;;;20.72;55.33;101113.70;;;;-48
2020/06/24 03:38:05;;;;;;;2.01;1.89;;;;;;;20.72;55.34;101112.08;;;;-48
2020/06/24 03:41:05;;;;;;;2.13;2.00;;;;;;;20.72;55.31;101115.45;;;;-48
2020/06/24 03:44:05;;;;;;;2.36;2.16;;;;;;;20.71;55.33;101113.48;;;;-48
2020/06/24 03:47:05;;;;;;;2.12;2.02;;;;;;;20.71;55.29;101117.52;;;;-47
2020/06/24 03:50:05;;;;;;;2.25;2.05;;;;;;;20.71;55.31;101119.69;;;;-48
2020/06/24 03:53:05;;;;;;;2.21;1.90;;;;;;;20.71;55.31;101118.25;;;;-48
2020/06/24 03:56:05;;;;;;;2.10;1.92;;;;;;;20.71;55.31;101124.13;;;;-48
2020/06/24 03:59:05;;;;;;;2.15;1.96;;;;;;;20.70;55.31;101126.53;;;;-48
2020/06/24 04:02:05;;;;;;;2.19;1.99;;;;;;;20.71;55.32;101126.63;;;;-48
2020/06/24 04:05:05;;;;;;;2.15;2.00;;;;;;;20.71;55.29;101128.92;;;;-48
2020/06/24 04:08:05;;;;;;;2.15;1.99;;;;;;;20.71;55.31;101134.53;;;;-48
2020/06/24 04:11:05;;;;;;;2.15;2.00;;;;;;;20.71;55.26;101138.33;;;;-48
2020/06/24 04:14:05;;;;;;;2.01;1.91;;;;;;;20.71;55.33;101138.50;;;;-47
2020/06/24 04:17:05;;;;;;;2.22;2.06;;;;;;;20.70;55.29;101139.95;;;;-47
2020/06/24 04:20:05;;;;;;;2.25;2.05;;;;;;;20.71;55.26;101139.06;;;;-48
2020/06/24 04:23:05;;;;;;;2.15;1.95;;;;;;;20.71;55.29;101138.66;;;;-48
2020/06/24 04:26:05;;;;;;;2.21;2.01;;;;;;;20.71;55.25;101141.75;;;;-47
2020/06/24 04:29:05;;;;;;;2.19;1.99;;;;;;;20.71;55.25;101143.75;;;;-48
2020/06/24 04:32:05;;;;;;;2.07;1.94;;;;;;;20.70;55.30;101139.78;;;;-48
2020/06/24 04:35:05;;;;;;;2.01;1.91;;;;;;;20.70;55.26;101139.28;;;;-48
2020/06/24 04:38:05;;;;;;;2.22;2.07;;;;;;;20.71;55.23;101140.41;;;;-48
2020/06/24 04:41:05;;;;;;;2.07;1.97;;;;;;;20.70;55.27;101139.84;;;;-48
2020/06/24 04:44:05;;;;;;;2.19;2.00;;;;;;;20.71;55.31;101138.66;;;;-48
2020/06/24 04:47:05;;;;;;;2.19;2.00;;;;;;;20.71;55.25;101136.64;;;;-48
2020/06/24 04:50:05;;;;;;;2.34;2.10;;;;;;;20.72;55.15;101140.61;;;;-48
2020/06/24 04:53:05;;;;;;;8.64;2.22;;;;;;;20.71;55.14;101139.40;;;;-48
2020/06/24 04:56:05;;;;;;;2.26;2.06;;;;;;;20.71;55.12;101138.55;;;;-48
2020/06/24 04:59:05;;;;;;;2.30;2.10;;;;;;;20.70;54.99;101136.59;;;;-48
2020/06/24 05:02:05;;;;;;;2.42;2.10;;;;;;;20.70;55.13;101133.41;;;;-48
2020/06/24 05:05:05;;;;;;;2.00;1.90;;;;;;;20.69;55.16;101134.70;;;;-48
2020/06/24 05:08:05;;;;;;;2.10;2.00;;;;;;;20.70;55.18;101136.66;;;;-48
2020/06/24 05:11:05;;;;;;;3.17;2.13;;;;;;;20.70;55.20;101135.58;;;;-48
2020/06/24 05:14:05;;;;;;;2.20;2.00;;;;;;;20.70;55.21;101133.41;;;;-48
2020/06/24 05:17:05;;;;;;;2.11;1.91;;;;;;;20.69;55.26;101131.34;;;;-48
2020/06/24 05:20:05;;;;;;;2.11;1.91;;;;;;;20.69;55.25;101137.11;;;;-48
2020/06/24 05:23:05;;;;;;;2.33;1.83;;;;;;;20.69;55.24;101142.08;;;;-48
2020/06/24 05:26:05;;;;;;;2.15;1.95;;;;;;;20.69;55.23;101138.56;;;;-48
2020/06/24 05:29:05;;;;;;;2.11;1.93;;;;;;;20.69;55.26;101131.34;;;;-48
2020/06/24 05:32:05;;;;;;;2.13;2.00;;;;;;;20.68;55.24;101136.06;;;;-48
2020/06/24 05:35:05;;;;;;;2.35;2.11;;;;;;;20.69;55.24;101143.98;;;;-48
2020/06/24 05:38:05;;;;;;;2.21;2.01;;;;;;;20.69;55.24;101143.44;;;;-48
2020/06/24 05:41:05;;;;;;;2.35;2.15;;;;;;;20.68;55.25;101140.36;;;;-48
2020/06/24 05:44:05;;;;;;;2.01;1.91;;;;;;;20.70;55.25;101145.83;;;;-47
2020/06/24 05:47:05;;;;;;;2.06;1.96;;;;;;;20.70;55.26;101138.27;;;;-48
2020/06/24 05:50:05;;;;;;;2.21;2.01;;;;;;;20.69;55.22;101139.97;;;;-48
2020/06/24 05:53:05;;;;;;;2.07;1.97;;;;;;;20.69;55.24;101142.75;;;;-47
2020/06/24 05:56:05;;;;;;;2.30;1.82;;;;;;;20.69;55.21;101145.16;;;;-48
2020/06/24 05:59:05;;;;;;;2.17;1.91;;;;;;;20.69;55.24;101145.00;;;;-48
2020/06/24 06:02:05;;;;;;;2.01;1.84;;;;;;;20.70;55.16;101146.55;;;;-48
2020/06/24 06:05:05;;;;;;;1.84;1.73;;;;;;;20.69;55.21;101149.97;;;;-47
2020/06/24 06:08:05;;;;;;;2.10;1.87;;;;;;;20.68;55.20;101151.77;;;;-47
2020/06/24 06:11:05;;;;;;;1.99;1.89;;;;;;;20.68;55.23;101151.59;;;;-47
2020/06/24 06:14:05;;;;;;;1.91;1.81;;;;;;;20.69;55.18;101156.24;;;;-48
2020/06/24 06:17:05;;;;;;;2.03;1.91;;;;;;;20.68;55.19;101154.19;;;;-48
2020/06/24 06:20:05;;;;;;;2.08;1.93;;;;;;;20.68;55.20;101156.53;;;;-48
2020/06/24 06:23:05;;;;;;;2.09;1.89;;;;;;;20.68;55.19;101155.52;;;;-48
2020/06/24 06:26:05;;;;;;;1.81;1.70;;;;;;;20.68;55.16;101159.56;;;;-48
2020/06/24 06:29:05;;;;;;;2.01;1.85;;;;;;;20.68;55.18;101159.72;;;;-47
2020/06/24 06:32:05;;;;;;;1.95;1.80;;;;;;;20.68;55.20;101161.17;;;;-48
2020/06/24 06:35:05;;;;;;;2.02;1.85;;;;;;;20.68;55.15;101159.56;;;;-47
2020/06/24 06:38:05;;;;;;;2.23;2.03;;;;;;;20.68;55.15;101162.18;;;;-48
2020/06/24 06:41:05;;;;;;;1.97;1.83;;;;;;;20.68;55.15;101160.49;;;;-48
2020/06/24 06:44:05;;;;;;;1.93;1.83;;;;;;;20.68;55.12;101160.17;;;;-48
2020/06/24 06:47:05;;;;;;;2.21;2.00;;;;;;;20.68;55.14;101159.56;;;;-48
2020/06/24 06:50:05;;;;;;;1.89;1.79;;;;;;;20.68;55.14;101157.81;;;;-47
2020/06/24 06:53:05;;;;;;;2.06;1.94;;;;;;;20.68;55.14;101160.06;;;;-47
2020/06/24 06:56:05;;;;;;;1.90;1.80;;;;;;;20.67;55.12;101157.09;;;;-48
2020/06/24 06:59:05;;;;;;;1.90;1.80;;;;;;;20.68;55.09;101154.63;;;;-48
2020/06/24 07:02:05;;;;;;;2.01;1.81;;;;;;;20.67;55.13;101159.11;;;;-48
2020/06/24 07:05:05;;;;;;;2.08;1.98;;;;;;;20.69;55.09;101160.61;;;;-48
2020/06/24 07:08:05;;;;;;;2.00;1.90;;;;;;;20.68;55.14;101159.33;;;;-47
2020/06/24 07:11:05;;;;;;;2.09;1.90;;;;;;;20.68;55.10;101154.96;;;;-48
2020/06/24 07:14:05;;;;;;;2.03;1.93;;;;;;;20.69;55.12;101157.25;;;;-48
2020/06/24 07:17:05;;;;;;;1.97;1.87;;;;;;;20.68;55.11;101154.96;;;;-47
2020/06/24 07:20:05;;;;;;;2.08;1.88;;;;;;;20.68;55.11;101152.51;;;;-47
2020/06/24 07:23:05;;;;;;;2.20;2.00;;;;;;;20.68;55.01;101152.17;;;;-47
2020/06/24 07:26:05;;;;;;;5.31;1.90;;;;;;;20.68;55.00;101155.86;;;;-47
2020/06/24 07:29:05;;;;;;;2.23;2.01;;;;;;;20.68;55.04;101155.19;;;;-48
2020/06/24 07:32:05;;;;;;;2.45;1.88;;;;;;;20.68;55.07;101153.02;;;;-48
2020/06/24 07:35:05;;;;;;;1.81;1.71;;;;;;;20.68;55.06;101153.95;;;;-48
2020/06/24 07:38:05;;;;;;;2.13;1.93;;;;;;;20.68;55.06;101152.84;;;;-48
2020/06/24 07:41:05;;;;;;;1.87;1.77;;;;;;;20.68;55.08;101148.98;;;;-48
2020/06/24 07:44:05;;;;;;;2.00;1.90;;;;;;;20.67;55.06;101150.44;;;;-48
2020/06/24 07:47:05;;;;;;;2.43;1.91;;;;;;;20.68;55.05;101151.10;;;;-48
2020/06/24 07:50:05;;;;;;;1.90;1.80;;;;;;;20.68;55.04;101152.77;;;;-48
2020/06/24 07:53:05;;;;;;;2.35;1.98;;;;;;;20.68;55.09;101153.69;;;;-47
2020/06/24 07:56:05;;;;;;;1.96;1.85;;;;;;;20.69;55.05;101147.17;;;;-45
2020/06/24 07:59:05;;;;;;;3.47;2.04;;;;;;;20.71;54.89;101150.47;;;;-45
2020/06/24 08:02:05;;;;;;;3.06;2.13;;;;;;;20.72;55.15;101146.39;;;;-51
2020/06/24 08:05:05;;;;;;;2.05;1.85;;;;;;;20.73;55.23;101148.67;;;;-50
2020/06/24 08:08:05;;;;;;;2.29;1.86;;;;;;;20.75;55.17;101149.16;;;;-52
2020/06/24 08:11:05;;;;;;;3.55;2.01;;;;;;;20.78;55.16;101151.33;;;;-54
2020/06/24 08:14:05;;;;;;;2.19;1.89;;;;;;;20.78;55.19;101153.34;;;;-47
2020/06/24 08:17:05;;;;;;;2.99;2.09;;;;;;;20.80;55.31;101148.87;;;;-45
2020/06/24 08:20:05;;;;;;;3.91;2.03;;;;;;;20.80;55.23;101148.03;;;;-46
2020/06/24 08:23:05;;;;;;;3.32;1.85;;;;;;;20.80;55.19;101147.77;;;;-45
2020/06/24 08:26:05;;;;;;;2.01;1.80;;;;;;;20.80;55.20;101147.67;;;;-45
2020/06/24 08:29:05;;;;;;;3.05;1.99;;;;;;;20.81;55.21;101145.77;;;;-46
2020/06/24 08:32:05;;;;;;;2.16;1.96;;;;;;;20.80;55.23;101140.98;;;;-46
2020/06/24 08:35:05;;;;;;;2.15;1.87;;;;;;;20.80;55.20;101144.67;;;;-45
2020/06/24 08:38:05;;;;;;;2.21;1.93;;;;;;;20.80;55.14;101140.98;;;;-46
2020/06/24 08:41:05;;;;;;;2.78;2.01;;;;;;;20.80;55.15;101136.30;;;;-46
2020/06/24 08:44:05;;;;;;;2.45;1.93;;;;;;;20.80;55.14;101134.44;;;;-46
2020/06/24 08:47:05;;;;;;;2.69;1.99;;;;;;;20.80;55.15;101138.14;;;;-51
2020/06/24 08:50:05;;;;;;;2.66;1.90;;;;;;;20.83;55.17;101135.13;;;;-50
2020/06/24 08:53:05;;;;;;;2.03;1.83;;;;;;;20.83;55.17;101132.25;;;;-49
2020/06/24 08:56:05;;;;;;;3.81;1.93;;;;;;;20.84;55.19;101131.81;;;;-49
2020/06/24 08:59:05;;;;;;;4.74;1.96;;;;;;;20.85;55.27;101132.07;;;;-49
2020/06/24 09:02:05;;;;;;;3.57;1.93;;;;;;;20.86;55.39;101135.25;;;;-47
2020/06/24 09:05:05;;;;;;;4.15;2.13;;;;;;;20.89;55.35;101130.05;;;;-43
2020/06/24 09:08:05;;;;;;;7.51;2.13;;;;;;;20.91;55.24;101128.24;;;;-49
2020/06/24 09:11:05;;;;;;;6.29;2.13;;;;;;;20.91;55.17;101125.22;;;;-49
2020/06/24 09:14:05;;;;;;;4.59;2.17;;;;;;;20.91;55.28;101126.12;;;;-49
2020/06/24 09:17:05;;;;;;;5.05;1.95;;;;;;;20.90;55.31;101126.52;;;;-48
2020/06/24 09:20:05;;;;;;;3.85;1.82;;;;;;;20.90;55.32;101123.92;;;;-48
2020/06/24 09:23:05;;;;;;;8.55;2.04;;;;;;;20.90;55.30;101118.84;;;;-48
2020/06/24 09:26:05;;;;;;;3.91;1.89;;;;;;;20.89;55.27;101117.56;;;;-48
2020/06/24 09:29:05;;;;;;;3.04;1.92;;;;;;;20.90;55.26;101124.39;;;;-49
2020/06/24 09:32:05;;;;;;;2.47;1.90;;;;;;;20.89;55.24;101117.40;;;;-49
2020/06/24 09:35:05;;;;;;;5.04;2.07;;;;;;;20.89;55.23;101121.09;;;;-48
2020/06/24 09:38:05;;;;;;;2.99;2.01;;;;;;;20.89;55.19;101116.22;;;;-48
2020/06/24 09:41:05;;;;;;;3.43;1.96;;;;;;;20.89;55.20;101111.91;;;;-48
2020/06/24 09:44:05;;;;;;;6.78;2.57;;;;;;;20.90;55.13;101113.14;;;;-49
2020/06/24 09:47:05;;;;;;;6.95;2.53;;;;;;;20.90;55.03;101113.85;;;;-48
2020/06/24 09:50:05;;;;;;;4.30;2.20;;;;;;;20.90;55.02;101109.78;;;;-48
2020/06/24 09:53:05;;;;;;;3.39;2.42;;;;;;;20.90;55.03;101107.87;;;;-49
2020/06/24 09:56:05;;;;;;;6.02;2.85;;;;;;;20.90;55.04;101102.09;;;;-49
2020/06/24 09:59:05;;;;;;;8.11;3.91;;;;;;;20.91;55.06;101100.26;;;;-48
2020/06/24 10:02:05;;;;;;;9.33;4.96;;;;;;;20.90;55.07;101097.30;;;;-48
2020/06/24 10:05:05;;;;;;;9.49;5.57;;;;;;;20.90;55.06;101099.24;;;;-48
2020/06/24 10:08:05;;;;;;;13.68;5.97;;;;;;;20.91;55.11;101095.67;;;;-49
2020/06/24 10:11:05;;;;;;;10.57;5.69;;;;;;;20.91;55.13;101091.63;;;;-49
2020/06/24 10:14:05;;;;;;;10.88;6.13;;;;;;;20.91;55.17;101090.90;;;;-49
2020/06/24 10:17:05;;;;;;;11.93;6.33;;;;;;;20.91;55.12;101079.38;;;;-48
2020/06/24 10:20:05;;;;;;;11.07;6.49;;;;;;;20.91;55.18;101085.59;;;;-49
2020/06/24 10:23:05;;;;;;;14.21;7.22;;;;;;;20.92;55.26;101085.91;;;;-50
2020/06/24 10:26:05;;;;;;;13.19;7.09;;;;;;;20.93;55.31;101082.50;;;;-47
2020/06/24 10:29:05;;;;;;;13.76;7.06;;;;;;;20.93;55.32;101080.09;;;;-50
2020/06/24 10:32:05;;;;;;;13.51;7.32;;;;;;;20.95;55.29;101072.69;;;;-49
2020/06/24 10:35:05;;;;;;;13.16;7.43;;;;;;;20.96;55.36;101068.88;;;;-47
2020/06/24 10:38:05;;;;;;;16.82;7.54;;;;;;;20.97;55.40;101069.20;;;;-48
2020/06/24 10:41:05;;;;;;;15.03;7.69;;;;;;;20.98;55.24;101063.49;;;;-49
2020/06/24 10:44:05;;;;;;;15.00;7.81;;;;;;;20.99;55.44;101068.69;;;;-50
2020/06/24 10:47:05;;;;;;;15.07;7.50;;;;;;;20.98;55.35;101069.08;;;;-50
2020/06/24 10:50:05;;;;;;;16.29;7.69;;;;;;;21.00;55.41;101068.90;;;;-42
2020/06/24 10:53:05;;;;;;;16.13;7.52;;;;;;;21.02;55.51;101060.44;;;;-44
2020/06/24 10:56:05;;;;;;;14.86;7.11;;;;;;;21.04;55.48;101057.63;;;;-43
2020/06/24 10:59:05;;;;;;;18.76;7.57;;;;;;;21.05;55.46;101064.23;;;;-53
2020/06/24 11:02:05;;;;;;;15.25;7.17;;;;;;;21.04;55.49;101054.75;;;;-55
2020/06/24 11:05:05;;;;;;;16.46;6.99;;;;;;;21.06;55.41;101054.47;;;;-49
2020/06/24 11:08:05;;;;;;;13.04;6.57;;;;;;;21.05;55.35;101058.56;;;;-49
2020/06/24 11:11:05;;;;;;;16.55;6.62;;;;;;;21.05;55.38;101053.36;;;;-49
2020/06/24 11:14:05;;;;;;;14.85;7.15;;;;;;;21.03;55.41;101046.48;;;;-49
2020/06/24 11:17:05;;;;;;;16.11;6.73;;;;;;;21.03;55.44;101052.19;;;;-49
2020/06/24 11:20:05;;;;;;;13.34;6.81;;;;;;;21.02;55.38;101050.63;;;;-49
2020/06/24 11:23:05;;;;;;;15.38;6.77;;;;;;;21.02;55.38;101039.44;;;;-48
2020/06/24 11:26:05;;;;;;;12.23;6.68;;;;;;;21.02;55.34;101041.12;;;;-49
2020/06/24 11:29:05;;;;;;;14.17;7.11;;;;;;;21.01;55.31;101036.70;;;;-49
2020/06/24 11:32:05;;;;;;;13.07;6.39;;;;;;;21.00;55.27;101034.25;;;;-49
2020/06/24 11:35:05;;;;;;;14.13;6.55;;;;;;;21.00;55.29;101038.27;;;;-51
2020/06/24 11:38:05;;;;;;;16.08;6.60;;;;;;;21.03;55.10;101039.48;;;;-43
2020/06/24 11:41:05;;;;;;;13.61;6.35;;;;;;;21.01;55.15;101035.70;;;;-43
2020/06/24 11:44:05;;;;;;;13.28;5.99;;;;;;;21.01;55.25;101022.03;;;;-49
2020/06/24 11:47:05;;;;;;;11.18;6.00;;;;;;;21.05;55.18;101023.42;;;;-49
2020/06/24 11:50:05;;;;;;;12.31;5.73;;;;;;;21.06;55.07;101020.95;;;;-45
2020/06/24 11:53:05;;;;;;;16.09;5.63;;;;;;;21.08;55.32;101020.08;;;;-51
2020/06/24 11:56:05;;;;;;;17.61;6.21;;;;;;;21.11;55.36;101014.80;;;;-48
2020/06/24 11:59:05;;;;;;;14.49;6.19;;;;;;;21.12;55.51;101023.79;;;;-45
2020/06/24 12:02:05;;;;;;;14.38;6.05;;;;;;;21.12;55.53;101018.48;;;;-47
2020/06/24 12:05:05;;;;;;;12.25;5.83;;;;;;;21.14;55.30;101011.69;;;;-47
2020/06/24 12:08:05;;;;;;;13.87;5.23;;;;;;;21.13;55.23;101010.13;;;;-45
2020/06/24 12:11:05;;;;;;;12.15;5.65;;;;;;;21.14;55.44;101007.48;;;;-45
2020/06/24 12:14:06;;;;;;;12.07;5.51;;;;;;;21.14;55.36;101003.85;;;;-47
2020/06/24 12:17:05;;;;;;;26.47;5.81;;;;;;;21.15;55.34;101007.03;;;;-49
2020/06/24 12:20:05;;;;;;;16.96;5.54;;;;;;;21.16;55.34;101001.77;;;;-45
2020/06/24 12:23:05;;;;;;;23.81;5.85;;;;;;;21.17;55.39;101009.20;;;;-50
2020/06/24 12:26:05;;;;;;;13.39;5.35;;;;;;;21.17;55.49;100997.88;;;;-50
2020/06/24 12:29:05;;;;;;;11.37;5.09;;;;;;;21.17;55.44;101000.58;;;;-49
2020/06/24 12:32:05;;;;;;;13.86;5.51;;;;;;;21.18;55.57;100998.77;;;;-47
2020/06/24 12:35:05;;;;;;;13.37;5.20;;;;;;;21.20;55.55;100997.02;;;;-45
2020/06/24 12:38:05;;;;;;;14.11;5.25;;;;;;;21.22;55.61;100987.70;;;;-48
2020/06/24 12:41:05;;;;;;;13.26;5.22;;;;;;;21.22;55.56;100988.71;;;;-44
2020/06/24 12:44:05;;;;;;;15.19;5.63;;;;;;;21.23;55.57;100988.42;;;;-47
2020/06/24 12:47:05;;;;;;;14.27;5.29;;;;;;;21.24;55.54;100976.27;;;;-51
2020/06/24 12:50:05;;;;;;;11.53;4.75;;;;;;;21.24;55.51;100972.84;;;;-46
2020/06/24 12:53:05;;;;;;;9.61;4.46;;;;;;;21.25;55.49;100965.89;;;;-48
2020/06/24 12:56:05;;;;;;;10.39;4.55;;;;;;;21.25;55.44;100966.40;;;;-47
2020/06/24 12:59:05;;;;;;;12.45;4.85;;;;;;;21.26;55.54;100964.53;;;;-45
2020/06/24 13:02:05;;;;;;;9.27;4.53;;;;;;;21.26;55.48;100964.36;;;;-43
2020/06/24 13:05:05;;;;;;;13.29;4.67;;;;;;;21.27;55.42;100962.63;;;;-51
2020/06/24 13:08:05;;;;;;;11.96;4.62;;;;;;;21.27;55.46;100968.57;;;;-48
2020/06/24 13:11:05;;;;;;;9.25;4.39;;;;;;;21.28;55.52;100963.07;;;;-47
2020/06/24 13:14:05;;;;;;;18.55;4.63;;;;;;;21.29;55.45;100961.55;;;;-50
2020/06/24 13:17:05;;;;;;;9.42;4.35;;;;;;;21.29;55.47;100949.68;;;;-48
2020/06/24 13:20:05;;;;;;;11.46;4.01;;;;;;;21.31;55.48;100951.78;;;;-47
2020/06/24 13:23:05;;;;;;;15.23;4.37;;;;;;;21.31;55.30;100952.16;;;;-48
2020/06/24 13:26:05;;;;;;;7.49;3.89;;;;;;;21.31;55.47;100957.70;;;;-43
2020/06/24 13:29:05;;;;;;;9.19;3.99;;;;;;;21.33;55.49;100952.98;;;;-47
2020/06/24 13:32:05;;;;;;;9.85;4.01;;;;;;;21.33;55.43;100951.41;;;;-45
2020/06/24 13:35:06;;;;;;;7.46;3.86;;;;;;;21.34;55.34;100952.19;;;;-46
2020/06/24 13:38:06;;;;;;;11.95;3.95;;;;;;;21.35;55.42;100947.19;;;;-46
2020/06/24 13:41:05;;;;;;;13.92;4.13;;;;;;;21.34;55.26;100947.65;;;;-53
2020/06/24 13:44:05;;;;;;;6.17;3.66;;;;;;;21.35;55.45;100947.12;;;;-45
2020/06/24 13:47:05;;;;;;;10.48;3.93;;;;;;;21.35;55.46;100942.77;;;;-53
2020/06/24 13:50:05;;;;;;;9.82;3.90;;;;;;;21.35;55.48;100940.75;;;;-47
2020/06/24 13:53:05;;;;;;;7.97;3.87;;;;;;;21.35;55.51;100940.07;;;;-43
2020/06/24 13:56:06;;;;;;;6.49;3.85;;;;;;;21.35;55.46;100937.38;;;;-45
2020/06/24 13:59:05;;;;;;;10.35;3.82;;;;;;;21.36;55.49;100939.13;;;;-46
2020/06/24 14:02:05;;;;;;;8.44;3.73;;;;;;;21.36;55.47;100941.46;;;;-45
2020/06/24 14:05:05;;;;;;;7.92;3.69;;;;;;;21.36;55.49;100934.88;;;;-45
2020/06/24 14:08:05;;;;;;;7.56;3.48;;;;;;;21.36;55.40;100927.75;;;;-45
2020/06/24 14:11:05;;;;;;;5.78;3.55;;;;;;;21.36;55.55;100930.55;;;;-47
2020/06/24 14:14:05;;;;;;;8.34;3.55;;;;;;;21.37;55.48;100928.63;;;;-48
2020/06/24 14:17:05;;;;;;;7.07;3.23;;;;;;;21.37;55.54;100923.19;;;;-42
2020/06/24 14:20:05;;;;;;;6.97;3.51;;;;;;;21.37;55.44;100928.41;;;;-45
2020/06/24 14:23:05;;;;;;;6.42;3.17;;;;;;;21.38;55.50;100925.98;;;;-43
2020/06/24 14:26:05;;;;;;;7.18;3.69;;;;;;;21.40;55.58;100935.38;;;;-45
2020/06/24 14:29:05;;;;;;;10.17;3.31;;;;;;;21.39;55.24;100926.98;;;;-46
2020/06/24 14:32:05;;;;;;;6.51;3.27;;;;;;;21.39;55.26;100927.71;;;;-46
2020/06/24 14:35:05;;;;;;;6.20;3.28;;;;;;;21.38;55.28;100928.51;;;;-45
2020/06/24 14:38:05;;;;;;;5.45;3.14;;;;;;;21.36;55.19;100918.11;;;;-45
2020/06/24 14:41:05;;;;;;;6.57;3.12;;;;;;;21.37;55.17;100921.91;;;;-45
2020/06/24 14:44:05;;;;;;;4.95;3.09;;;;;;;21.36;55.19;100914.54;;;;-45
2020/06/24 14:47:05;;;;;;;6.42;3.13;;;;;;;21.37;55.19;100919.56;;;;-44
2020/06/24 14:50:05;;;;;;;7.54;3.11;;;;;;;21.38;55.27;100919.90;;;;-47
2020/06/24 14:53:05;;;;;;;9.30;3.38;;;;;;;21.38;55.37;100912.31;;;;-56
2020/06/24 14:56:05;;;;;;;9.15;3.09;;;;;;;21.39;55.35;100915.52;;;;-46
2020/06/24 14:59:05;;;;;;;7.32;3.33;;;;;;;21.39;55.37;100909.46;;;;-46
2020/06/24 15:02:05;;;;;;;6.93;2.99;;;;;;;21.39;55.39;100916.79;;;;-51
2020/06/24 15:05:05;;;;;;;5.97;3.14;;;;;;;21.39;55.44;100912.92;;;;-44
2020/06/24 15:08:07;;;;;;;9.12;3.27;;;;;;;21.40;55.59;100912.06;;;;-51
2020/06/24 15:11:05;;;;;;;7.37;2.99;;;;;;;21.40;55.36;100910.62;;;;-47
2020/06/24 15:14:05;;;;;;;7.45;2.82;;;;;;;21.42;55.30;100912.99;;;;-47
2020/06/24 15:17:05;;;;;;;5.64;2.98;;;;;;;21.45;55.28;100918.80;;;;-50
2020/06/24 15:20:05;;;;;;;11.02;2.98;;;;;;;21.46;55.60;100912.35;;;;-48
2020/06/24 15:23:05;;;;;;;8.81;3.03;;;;;;;21.44;55.30;100911.53;;;;-46
2020/06/24 15:26:05;;;;;;;9.16;3.19;;;;;;;21.44;55.40;100909.01;;;;-45
2020/06/24 15:29:05;;;;;;;9.10;3.16;;;;;;;21.43;55.41;100907.63;;;;-47
2020/06/24 15:32:05;;;;;;;8.23;3.16;;;;;;;21.42;55.38;100906.67;;;;-45
2020/06/24 15:35:06;;;;;;;8.59;3.03;;;;;;;21.41;55.35;100904.55;;;;-45
2020/06/24 15:38:05;;;;;;;5.59;2.79;;;;;;;21.41;55.25;100903.50;;;;-51
2020/06/24 15:41:05;;;;;;;6.11;2.97;;;;;;;21.41;55.30;100903.44;;;;-44
2020/06/24 15:44:05;;;;;;;4.40;2.72;;;;;;;21.41;55.18;100899.57;;;;-44
2020/06/24 15:47:05;;;;;;;6.43;2.82;;;;;;;21.42;55.18;100898.61;;;;-44
2020/06/24 15:50:05;;;;;;;4.53;2.62;;;;;;;21.42;55.33;100896.48;;;;-42
2020/06/24 15:53:05;;;;;;;6.94;2.72;;;;;;;21.43;55.25;100898.27;;;;-52
2020/06/24 15:56:05;;;;;;;7.63;2.75;;;;;;;21.43;55.31;100895.52;;;;-47
2020/06/24 15:59:05;;;;;;;5.17;2.75;;;;;;;21.43;55.31;100892.50;;;;-45
2020/06/24 16:02:05;;;;;;;8.15;2.79;;;;;;;21.44;55.35;100895.73;;;;-49
2020/06/24 16:05:05;;;;;;;5.41;2.82;;;;;;;21.45;55.45;100903.52;;;;-51
2020/06/24 16:08:05;;;;;;;3.80;2.54;;;;;;;21.46;55.46;100896.89;;;;-52
2020/06/24 16:11:05;;;;;;;3.87;2.44;;;;;;;21.46;55.49;100892.73;;;;-52
2020/06/24 16:14:05;;;;;;;3.97;2.65;;;;;;;21.46;55.52;100892.30;;;;-49
2020/06/24 16:17:05;;;;;;;5.23;2.55;;;;;;;21.47;55.47;100894.41;;;;-50
2020/06/24 16:20:05;;;;;;;4.43;2.45;;;;;;;21.48;55.46;100900.62;;;;-45
2020/06/24 16:23:05;;;;;;;4.74;2.42;;;;;;;21.48;55.49;100897.19;;;;-51
2020/06/24 16:26:05;;;;;;;6.72;2.59;;;;;;;21.49;55.42;100897.13;;;;-51
2020/06/24 16:29:05;;;;;;;5.11;2.47;;;;;;;21.50;55.47;100892.91;;;;-47
2020/06/24 16:32:05;;;;;;;4.44;2.37;;;;;;;21.50;55.51;100890.72;;;;-52
2020/06/24 16:35:05;;;;;;;4.65;2.51;;;;;;;21.51;55.38;100886.02;;;;-50
2020/06/24 16:38:05;;;;;;;5.97;2.43;;;;;;;21.51;55.25;100887.91;;;;-50
2020/06/24 16:41:05;;;;;;;5.65;2.49;;;;;;;21.51;55.43;100889.09;;;;-53
2020/06/24 16:44:05;;;;;;;6.83;2.44;;;;;;;21.52;55.36;100887.24;;;;-46